createdAt,value
2022-11-29T00:00:21.205Z,629.00
2022-11-29T00:00:51.261Z,628.00
2022-11-29T00:01:21.281Z,629.00
2022-11-29T00:01:51.402Z,628.00
2022-11-29T00:02:21.584Z,627.00
2022-11-29T00:02:51.553Z,628.00
2022-11-29T00:03:21.583Z,627.00
2022-11-29T00:03:51.560Z,627.00
2022-11-29T00:04:21.728Z,624.00
2022-11-29T00:04:51.688Z,624.00
2022-11-29T00:05:21.837Z,624.00
2022-11-29T00:05:51.903Z,623.00
2022-11-29T00:06:21.934Z,623.00
2022-11-29T00:06:52.096Z,623.00
2022-11-29T00:07:22.099Z,623.00
2022-11-29T00:07:52.115Z,623.00
2022-11-29T00:08:22.159Z,623.00
2022-11-29T00:08:52.250Z,622.00
2022-11-29T00:09:22.328Z,624.00
2022-11-29T00:09:52.366Z,625.00
2022-11-29T00:10:22.424Z,623.00
2022-11-29T00:10:52.466Z,623.00
2022-11-29T00:11:22.526Z,621.00
2022-11-29T00:11:52.586Z,621.00
2022-11-29T00:12:22.640Z,620.00
2022-11-29T00:12:52.666Z,619.00
2022-11-29T00:13:22.711Z,620.00
2022-11-29T00:13:52.758Z,620.00
2022-11-29T00:14:22.824Z,621.00
2022-11-29T00:14:52.883Z,621.00
2022-11-29T00:15:22.934Z,623.00
2022-11-29T00:15:53.004Z,624.00
2022-11-29T00:16:23.108Z,623.00
2022-11-29T00:16:53.131Z,624.00
2022-11-29T00:17:23.098Z,625.00
2022-11-29T00:17:53.137Z,627.00
2022-11-29T00:18:23.214Z,625.00
2022-11-29T00:18:53.254Z,626.00
2022-11-29T00:19:23.309Z,626.00
2022-11-29T00:19:53.339Z,625.00
2022-11-29T00:20:23.387Z,624.00
2022-11-29T00:20:53.457Z,625.00
2022-11-29T00:21:23.501Z,626.00
2022-11-29T00:21:53.533Z,628.00
2022-11-29T00:22:23.572Z,629.00
2022-11-29T00:22:53.615Z,628.00
2022-11-29T00:23:23.651Z,629.00
2022-11-29T00:23:53.713Z,629.00
2022-11-29T00:24:23.805Z,631.00
2022-11-29T00:24:53.855Z,631.00
2022-11-29T00:25:23.890Z,629.00
2022-11-29T00:25:53.985Z,629.00
2022-11-29T00:26:24.011Z,629.00
2022-11-29T00:26:54.066Z,629.00
2022-11-29T00:27:24.117Z,628.00
2022-11-29T00:27:54.161Z,628.00
2022-11-29T00:28:24.216Z,626.00
2022-11-29T00:28:54.245Z,626.00
2022-11-29T00:29:24.287Z,625.00
2022-11-29T00:29:54.313Z,626.00
2022-11-29T00:30:24.480Z,624.00
2022-11-29T00:30:54.489Z,623.00
2022-11-29T00:31:24.522Z,623.00
2022-11-29T00:31:54.536Z,622.00
2022-11-29T00:32:24.580Z,621.00
2022-11-29T00:32:54.610Z,621.00
2022-11-29T00:33:24.776Z,619.00
2022-11-29T00:33:54.817Z,620.00
2022-11-29T00:34:24.831Z,621.00
2022-11-29T00:34:57.268Z,621.00
2022-11-29T00:35:24.898Z,620.00
2022-11-29T00:35:55.045Z,620.00
2022-11-29T00:36:24.973Z,620.00
2022-11-29T00:36:55.010Z,620.00
2022-11-29T00:37:25.077Z,620.00
2022-11-29T00:37:55.123Z,618.00
2022-11-29T00:38:25.169Z,619.00
2022-11-29T00:38:55.226Z,619.00
2022-11-29T00:39:25.218Z,618.00
2022-11-29T00:39:55.243Z,618.00
2022-11-29T00:40:25.407Z,616.00
2022-11-29T00:40:55.424Z,616.00
2022-11-29T00:41:25.460Z,615.00
2022-11-29T00:41:55.505Z,614.00
2022-11-29T00:42:25.527Z,615.00
2022-11-29T00:42:55.507Z,614.00
2022-11-29T00:43:25.524Z,613.00
2022-11-29T00:43:55.542Z,612.00
2022-11-29T00:44:25.512Z,612.00
2022-11-29T00:44:55.576Z,611.00
2022-11-29T00:45:25.574Z,612.00
2022-11-29T00:45:55.603Z,613.00
2022-11-29T00:46:25.658Z,611.00
2022-11-29T00:46:55.704Z,613.00
2022-11-29T00:47:25.725Z,611.00
2022-11-29T00:47:55.810Z,614.00
2022-11-29T00:48:25.786Z,613.00
2022-11-29T00:48:55.802Z,610.00
2022-11-29T00:49:25.845Z,612.00
2022-11-29T00:49:55.876Z,614.00
2022-11-29T00:50:25.968Z,614.00
2022-11-29T00:50:56.052Z,614.00
2022-11-29T00:51:26.069Z,613.00
2022-11-29T00:51:56.136Z,612.00
2022-11-29T00:52:26.184Z,612.00
2022-11-29T00:52:56.280Z,612.00
2022-11-29T00:53:26.359Z,614.00
2022-11-29T00:53:56.393Z,614.00
2022-11-29T00:54:26.450Z,613.00
2022-11-29T00:54:56.496Z,616.00
2022-11-29T00:55:26.534Z,614.00
2022-11-29T00:55:56.583Z,614.00
2022-11-29T00:56:26.627Z,614.00
2022-11-29T00:56:56.673Z,614.00
2022-11-29T00:57:26.695Z,616.00
2022-11-29T00:57:56.729Z,617.00
2022-11-29T00:58:26.758Z,615.00
2022-11-29T00:58:56.794Z,613.00
2022-11-29T00:59:26.832Z,613.00
2022-11-29T00:59:56.878Z,612.00
2022-11-29T01:00:26.923Z,612.00
2022-11-29T01:00:57.028Z,611.00
2022-11-29T01:01:27.038Z,612.00
2022-11-29T01:01:57.128Z,611.00
2022-11-29T01:02:27.169Z,612.00
2022-11-29T01:02:57.184Z,611.00
2022-11-29T01:03:27.219Z,612.00
2022-11-29T01:03:57.249Z,613.00
2022-11-29T01:04:27.283Z,613.00
2022-11-29T01:04:57.365Z,612.00
2022-11-29T01:05:27.426Z,612.00
2022-11-29T01:05:57.456Z,612.00
2022-11-29T01:06:27.502Z,610.00
2022-11-29T01:06:57.552Z,611.00
2022-11-29T01:07:27.722Z,613.00
2022-11-29T01:07:57.703Z,613.00
2022-11-29T01:08:27.653Z,613.00
2022-11-29T01:08:57.694Z,611.00
2022-11-29T01:09:27.721Z,612.00
2022-11-29T01:09:57.777Z,611.00
2022-11-29T01:10:27.853Z,612.00
2022-11-29T01:10:57.886Z,610.00
2022-11-29T01:11:27.952Z,612.00
2022-11-29T01:11:58.058Z,611.00
2022-11-29T01:12:28.158Z,612.00
2022-11-29T01:12:58.220Z,611.00
2022-11-29T01:13:28.265Z,611.00
2022-11-29T01:13:58.380Z,611.00
2022-11-29T01:14:28.473Z,611.00
2022-11-29T01:14:58.506Z,608.00
2022-11-29T01:15:28.560Z,607.00
2022-11-29T01:15:58.715Z,607.00
2022-11-29T01:16:28.754Z,606.00
2022-11-29T01:16:58.756Z,606.00
2022-11-29T01:17:28.764Z,606.00
2022-11-29T01:17:58.831Z,608.00
2022-11-29T01:18:28.853Z,605.00
2022-11-29T01:18:58.885Z,606.00
2022-11-29T01:19:28.933Z,608.00
2022-11-29T01:19:58.982Z,608.00
2022-11-29T01:20:29.052Z,606.00
2022-11-29T01:20:59.128Z,607.00
2022-11-29T01:21:29.208Z,608.00
2022-11-29T01:21:59.237Z,609.00
2022-11-29T01:22:29.282Z,609.00
2022-11-29T01:22:59.318Z,610.00
2022-11-29T01:23:29.353Z,609.00
2022-11-29T01:23:59.400Z,607.00
2022-11-29T01:24:29.440Z,605.00
2022-11-29T01:24:59.482Z,605.00
2022-11-29T01:25:29.503Z,606.00
2022-11-29T01:25:59.585Z,605.00
2022-11-29T01:26:29.631Z,606.00
2022-11-29T01:26:59.709Z,608.00
2022-11-29T01:27:29.721Z,609.00
2022-11-29T01:27:59.794Z,610.00
2022-11-29T01:28:29.826Z,610.00
2022-11-29T01:28:59.888Z,610.00
2022-11-29T01:29:29.960Z,608.00
2022-11-29T01:30:00.032Z,606.00
2022-11-29T01:30:30.111Z,607.00
2022-11-29T01:31:00.325Z,607.00
2022-11-29T01:31:30.292Z,607.00
2022-11-29T01:32:00.393Z,608.00
2022-11-29T01:32:30.410Z,607.00
2022-11-29T01:33:00.568Z,608.00
2022-11-29T01:33:30.546Z,609.00
2022-11-29T01:34:00.575Z,609.00
2022-11-29T01:34:30.602Z,608.00
2022-11-29T01:35:00.654Z,611.00
2022-11-29T01:35:30.721Z,611.00
2022-11-29T01:36:00.768Z,608.00
2022-11-29T01:36:30.796Z,608.00
2022-11-29T01:37:00.924Z,608.00
2022-11-29T01:37:30.892Z,609.00
2022-11-29T01:38:00.904Z,613.00
2022-11-29T01:38:31.036Z,613.00
2022-11-29T01:39:01.036Z,613.00
2022-11-29T01:39:31.182Z,613.00
2022-11-29T01:40:01.177Z,611.00
2022-11-29T01:40:31.192Z,609.00
2022-11-29T01:41:01.217Z,609.00
2022-11-29T01:41:31.215Z,610.00
2022-11-29T01:42:01.211Z,610.00
2022-11-29T01:42:31.337Z,610.00
2022-11-29T01:43:01.369Z,612.00
2022-11-29T01:43:31.375Z,611.00
2022-11-29T01:44:01.372Z,611.00
2022-11-29T01:44:31.365Z,609.00
2022-11-29T01:45:01.366Z,608.00
2022-11-29T01:45:31.363Z,608.00
2022-11-29T01:46:01.531Z,607.00
2022-11-29T01:46:31.622Z,605.00
2022-11-29T01:47:01.643Z,608.00
2022-11-29T01:47:31.643Z,606.00
2022-11-29T01:48:01.638Z,606.00
2022-11-29T01:48:31.763Z,606.00
2022-11-29T01:49:01.817Z,605.00
2022-11-29T01:49:31.829Z,604.00
2022-11-29T01:50:01.866Z,604.00
2022-11-29T01:50:31.915Z,605.00
2022-11-29T01:51:01.977Z,604.00
2022-11-29T01:51:32.042Z,600.00
2022-11-29T01:52:02.117Z,602.00
2022-11-29T01:52:32.154Z,602.00
2022-11-29T01:53:02.195Z,602.00
2022-11-29T01:53:32.227Z,601.00
2022-11-29T01:54:02.256Z,603.00
2022-11-29T01:54:32.315Z,603.00
2022-11-29T01:55:02.370Z,604.00
2022-11-29T01:55:32.564Z,606.00
2022-11-29T01:56:02.491Z,607.00
2022-11-29T01:56:32.468Z,606.00
2022-11-29T01:57:02.502Z,606.00
2022-11-29T01:57:32.546Z,605.00
2022-11-29T01:58:02.599Z,604.00
2022-11-29T01:58:32.684Z,603.00
2022-11-29T01:59:02.722Z,605.00
2022-11-29T01:59:32.779Z,606.00
2022-11-29T02:00:02.821Z,604.00
2022-11-29T02:00:32.897Z,603.00
2022-11-29T02:01:02.983Z,605.00
2022-11-29T02:01:33.079Z,605.00
2022-11-29T02:02:03.008Z,605.00
2022-11-29T02:02:33.263Z,607.00
2022-11-29T02:03:03.070Z,607.00
2022-11-29T02:03:33.086Z,607.00
2022-11-29T02:04:03.178Z,606.00
2022-11-29T02:04:33.259Z,606.00
2022-11-29T02:05:03.317Z,607.00
2022-11-29T02:05:33.358Z,606.00
2022-11-29T02:06:03.379Z,607.00
2022-11-29T02:06:33.468Z,607.00
2022-11-29T02:07:03.528Z,607.00
2022-11-29T02:07:33.594Z,607.00
2022-11-29T02:08:03.609Z,609.00
2022-11-29T02:08:33.667Z,609.00
2022-11-29T02:09:03.720Z,607.00
2022-11-29T02:09:33.760Z,605.00
2022-11-29T02:10:03.817Z,604.00
2022-11-29T02:10:33.886Z,603.00
2022-11-29T02:11:03.901Z,607.00
2022-11-29T02:11:33.955Z,607.00
2022-11-29T02:12:04.023Z,606.00
2022-11-29T02:12:34.049Z,606.00
2022-11-29T02:13:04.078Z,605.00
2022-11-29T02:13:34.112Z,604.00
2022-11-29T02:14:04.194Z,604.00
2022-11-29T02:14:34.209Z,605.00
2022-11-29T02:15:04.247Z,604.00
2022-11-29T02:15:34.374Z,605.00
2022-11-29T02:16:04.352Z,609.00
2022-11-29T02:16:34.415Z,609.00
2022-11-29T02:17:04.457Z,607.00
2022-11-29T02:17:34.494Z,606.00
2022-11-29T02:18:04.545Z,607.00
2022-11-29T02:18:34.606Z,607.00
2022-11-29T02:19:04.645Z,607.00
2022-11-29T02:19:34.732Z,607.00
2022-11-29T02:20:04.775Z,607.00
2022-11-29T02:20:34.840Z,608.00
2022-11-29T02:21:04.893Z,609.00
2022-11-29T02:21:34.930Z,609.00
2022-11-29T02:22:04.981Z,611.00
2022-11-29T02:22:35.028Z,611.00
2022-11-29T02:23:05.075Z,609.00
2022-11-29T02:23:35.105Z,608.00
2022-11-29T02:24:05.200Z,607.00
2022-11-29T02:24:35.228Z,607.00
2022-11-29T02:25:05.251Z,607.00
2022-11-29T02:25:35.294Z,607.00
2022-11-29T02:26:05.344Z,607.00
2022-11-29T02:26:35.407Z,607.00
2022-11-29T02:27:05.464Z,606.00
2022-11-29T02:27:35.495Z,607.00
2022-11-29T02:28:05.538Z,606.00
2022-11-29T02:28:35.599Z,606.00
2022-11-29T02:29:05.651Z,607.00
2022-11-29T02:29:35.685Z,609.00
2022-11-29T02:30:05.727Z,608.00
2022-11-29T02:30:35.869Z,606.00
2022-11-29T02:31:05.828Z,607.00
2022-11-29T02:31:35.845Z,607.00
2022-11-29T02:32:05.905Z,604.00
2022-11-29T02:32:35.938Z,607.00
2022-11-29T02:33:05.973Z,608.00
2022-11-29T02:33:36.007Z,610.00
2022-11-29T02:34:06.027Z,610.00
2022-11-29T02:34:36.091Z,608.00
2022-11-29T02:35:06.138Z,607.00
2022-11-29T02:35:36.189Z,606.00
2022-11-29T02:36:06.198Z,608.00
2022-11-29T02:36:36.239Z,608.00
2022-11-29T02:37:11.423Z,608.00
2022-11-29T02:37:36.369Z,610.00
2022-11-29T02:38:06.450Z,609.00
2022-11-29T02:38:36.457Z,609.00
2022-11-29T02:39:06.453Z,608.00
2022-11-29T02:39:36.607Z,611.00
2022-11-29T02:40:06.601Z,613.00
2022-11-29T02:40:36.602Z,610.00
2022-11-29T02:41:06.653Z,610.00
2022-11-29T02:41:36.656Z,609.00
2022-11-29T02:42:06.659Z,609.00
2022-11-29T02:42:36.645Z,610.00
2022-11-29T02:43:06.651Z,612.00
2022-11-29T02:43:36.654Z,609.00
2022-11-29T02:44:06.687Z,607.00
2022-11-29T02:44:36.667Z,606.00
2022-11-29T02:45:06.817Z,606.00
2022-11-29T02:45:36.799Z,606.00
2022-11-29T02:46:06.981Z,603.00
2022-11-29T02:46:36.997Z,602.00
2022-11-29T02:47:07.012Z,601.00
2022-11-29T02:47:37.039Z,599.00
2022-11-29T02:48:07.052Z,598.00
2022-11-29T02:48:37.211Z,599.00
2022-11-29T02:49:07.311Z,600.00
2022-11-29T02:49:37.322Z,601.00
2022-11-29T02:50:07.359Z,601.00
2022-11-29T02:50:37.400Z,603.00
2022-11-29T02:51:07.456Z,603.00
2022-11-29T02:51:37.560Z,603.00
2022-11-29T02:52:07.655Z,603.00
2022-11-29T02:52:37.674Z,602.00
2022-11-29T02:53:07.721Z,604.00
2022-11-29T02:53:37.782Z,601.00
2022-11-29T02:54:07.844Z,599.00
2022-11-29T02:54:37.877Z,598.00
2022-11-29T02:55:07.947Z,600.00
2022-11-29T02:55:38.001Z,600.00
2022-11-29T02:56:08.044Z,601.00
2022-11-29T02:56:38.136Z,601.00
2022-11-29T02:57:08.166Z,601.00
2022-11-29T02:57:38.269Z,601.00
2022-11-29T02:58:08.293Z,601.00
2022-11-29T02:58:38.343Z,602.00
2022-11-29T02:59:08.373Z,601.00
2022-11-29T02:59:38.417Z,600.00
2022-11-29T03:00:08.482Z,597.00
2022-11-29T03:00:38.526Z,598.00
2022-11-29T03:01:08.611Z,597.00
2022-11-29T03:01:38.738Z,598.00
2022-11-29T03:02:08.710Z,598.00
2022-11-29T03:02:38.831Z,599.00
2022-11-29T03:03:08.904Z,599.00
2022-11-29T03:03:38.909Z,596.00
2022-11-29T03:04:09.039Z,595.00
2022-11-29T03:04:39.075Z,595.00
2022-11-29T03:05:09.119Z,598.00
2022-11-29T03:05:39.234Z,599.00
2022-11-29T03:06:09.292Z,599.00
2022-11-29T03:06:39.414Z,601.00
2022-11-29T03:07:09.485Z,601.00
2022-11-29T03:07:39.669Z,600.00
2022-11-29T03:08:09.609Z,599.00
2022-11-29T03:08:39.674Z,597.00
2022-11-29T03:09:09.732Z,598.00
2022-11-29T03:09:39.827Z,599.00
2022-11-29T03:10:09.851Z,597.00
2022-11-29T03:10:39.886Z,597.00
2022-11-29T03:11:09.939Z,598.00
2022-11-29T03:11:40.008Z,597.00
2022-11-29T03:12:10.089Z,597.00
2022-11-29T03:12:40.203Z,597.00
2022-11-29T03:13:10.177Z,596.00
2022-11-29T03:13:40.223Z,597.00
2022-11-29T03:14:10.262Z,597.00
2022-11-29T03:14:40.316Z,596.00
2022-11-29T03:15:10.391Z,596.00
2022-11-29T03:15:40.492Z,598.00
2022-11-29T03:16:10.591Z,597.00
2022-11-29T03:16:43.266Z,598.00
2022-11-29T03:17:10.660Z,598.00
2022-11-29T03:17:40.753Z,598.00
2022-11-29T03:18:10.810Z,598.00
2022-11-29T03:18:40.877Z,596.00
2022-11-29T03:19:10.960Z,596.00
2022-11-29T03:19:41.034Z,597.00
2022-11-29T03:20:11.129Z,596.00
2022-11-29T03:20:41.178Z,594.00
2022-11-29T03:21:11.257Z,595.00
2022-11-29T03:21:41.307Z,593.00
2022-11-29T03:22:11.376Z,592.00
2022-11-29T03:22:41.447Z,590.00
2022-11-29T03:23:11.517Z,588.00
2022-11-29T03:23:41.576Z,588.00
2022-11-29T03:24:11.644Z,586.00
2022-11-29T03:24:41.813Z,586.00
2022-11-29T03:25:11.742Z,587.00
2022-11-29T03:25:41.784Z,588.00
2022-11-29T03:26:11.841Z,587.00
2022-11-29T03:26:41.923Z,587.00
2022-11-29T03:27:11.988Z,586.00
2022-11-29T03:27:42.013Z,585.00
2022-11-29T03:28:12.054Z,583.00
2022-11-29T03:28:42.130Z,583.00
2022-11-29T03:29:12.182Z,581.00
2022-11-29T03:29:42.263Z,580.00
2022-11-29T03:30:12.301Z,579.00
2022-11-29T03:30:42.415Z,581.00
2022-11-29T03:31:12.475Z,583.00
2022-11-29T03:31:42.496Z,583.00
2022-11-29T03:32:12.587Z,585.00
2022-11-29T03:32:42.607Z,584.00
2022-11-29T03:33:12.700Z,584.00
2022-11-29T03:33:42.734Z,583.00
2022-11-29T03:34:12.765Z,584.00
2022-11-29T03:34:43.146Z,585.00
2022-11-29T03:35:12.952Z,583.00
2022-11-29T03:35:42.997Z,585.00
2022-11-29T03:36:13.068Z,584.00
2022-11-29T03:36:43.097Z,586.00
2022-11-29T03:37:13.373Z,584.00
2022-11-29T03:37:43.164Z,585.00
2022-11-29T03:38:13.200Z,586.00
2022-11-29T03:38:43.252Z,588.00
2022-11-29T03:39:13.269Z,589.00
2022-11-29T03:39:43.298Z,591.00
2022-11-29T03:40:13.308Z,592.00
2022-11-29T03:40:43.322Z,592.00
2022-11-29T03:41:13.372Z,587.00
2022-11-29T03:41:43.379Z,589.00
2022-11-29T03:42:13.398Z,589.00
2022-11-29T03:42:43.416Z,591.00
2022-11-29T03:43:13.424Z,589.00
2022-11-29T03:43:43.448Z,589.00
2022-11-29T03:44:13.504Z,589.00
2022-11-29T03:44:43.956Z,588.00
2022-11-29T03:45:13.531Z,588.00
2022-11-29T03:45:43.531Z,587.00
2022-11-29T03:46:13.689Z,587.00
2022-11-29T03:46:43.694Z,587.00
2022-11-29T03:47:13.677Z,587.00
2022-11-29T03:47:43.722Z,588.00
2022-11-29T03:48:13.772Z,588.00
2022-11-29T03:48:43.823Z,587.00
2022-11-29T03:49:13.847Z,588.00
2022-11-29T03:49:43.928Z,587.00
2022-11-29T03:50:13.973Z,587.00
2022-11-29T03:50:44.026Z,585.00
2022-11-29T03:51:14.061Z,586.00
2022-11-29T03:51:44.189Z,585.00
2022-11-29T03:52:14.217Z,583.00
2022-11-29T03:52:44.299Z,582.00
2022-11-29T03:53:14.338Z,582.00
2022-11-29T03:53:44.416Z,584.00
2022-11-29T03:54:14.443Z,584.00
2022-11-29T03:54:44.776Z,587.00
2022-11-29T03:55:14.609Z,586.00
2022-11-29T03:55:44.730Z,585.00
2022-11-29T03:56:14.743Z,586.00
2022-11-29T03:56:44.783Z,586.00
2022-11-29T03:57:14.851Z,586.00
2022-11-29T03:57:44.925Z,586.00
2022-11-29T03:58:14.957Z,586.00
2022-11-29T03:58:45.021Z,587.00
2022-11-29T03:59:15.080Z,588.00
2022-11-29T03:59:45.135Z,587.00
2022-11-29T04:00:15.250Z,586.00
2022-11-29T04:00:45.390Z,584.00
2022-11-29T04:01:15.418Z,582.00
2022-11-29T04:01:45.587Z,581.00
2022-11-29T04:02:15.586Z,580.00
2022-11-29T04:02:45.621Z,579.00
2022-11-29T04:03:15.665Z,580.00
2022-11-29T04:03:45.705Z,580.00
2022-11-29T04:04:15.760Z,582.00
2022-11-29T04:04:46.104Z,583.00
2022-11-29T04:05:15.927Z,584.00
2022-11-29T04:05:45.986Z,583.00
2022-11-29T04:06:16.087Z,585.00
2022-11-29T04:06:46.159Z,584.00
2022-11-29T04:07:16.266Z,583.00
2022-11-29T04:07:46.273Z,584.00
2022-11-29T04:08:16.279Z,582.00
2022-11-29T04:08:46.277Z,583.00
2022-11-29T04:09:16.326Z,583.00
2022-11-29T04:09:46.381Z,582.00
2022-11-29T04:10:16.435Z,582.00
2022-11-29T04:10:46.528Z,582.00
2022-11-29T04:11:16.568Z,588.00
2022-11-29T04:11:46.645Z,586.00
2022-11-29T04:12:16.686Z,586.00
2022-11-29T04:12:46.807Z,586.00
2022-11-29T04:13:16.858Z,586.00
2022-11-29T04:13:46.942Z,589.00
2022-11-29T04:14:16.974Z,589.00
2022-11-29T04:14:47.147Z,588.00
2022-11-29T04:15:17.043Z,587.00
2022-11-29T04:15:47.122Z,587.00
2022-11-29T04:16:17.249Z,589.00
2022-11-29T04:16:47.219Z,588.00
2022-11-29T04:17:17.288Z,587.00
2022-11-29T04:17:47.324Z,586.00
2022-11-29T04:18:17.389Z,586.00
2022-11-29T04:18:47.420Z,584.00
2022-11-29T04:19:17.467Z,585.00
2022-11-29T04:19:47.541Z,585.00
2022-11-29T04:20:17.593Z,583.00
2022-11-29T04:20:48.517Z,583.00
2022-11-29T04:21:17.655Z,584.00
2022-11-29T04:21:47.742Z,585.00
2022-11-29T04:22:17.812Z,587.00
2022-11-29T04:22:47.840Z,586.00
2022-11-29T04:23:17.880Z,588.00
2022-11-29T04:23:47.928Z,589.00
2022-11-29T04:24:18.004Z,590.00
2022-11-29T04:24:48.094Z,589.00
2022-11-29T04:25:18.190Z,588.00
2022-11-29T04:25:48.214Z,588.00
2022-11-29T04:26:18.295Z,588.00
2022-11-29T04:26:48.324Z,587.00
2022-11-29T04:27:18.380Z,588.00
2022-11-29T04:27:48.425Z,589.00
2022-11-29T04:28:18.462Z,589.00
2022-11-29T04:28:48.490Z,589.00
2022-11-29T04:29:18.539Z,588.00
2022-11-29T04:29:48.574Z,588.00
2022-11-29T04:30:18.605Z,586.00
2022-11-29T04:30:48.720Z,585.00
2022-11-29T04:31:18.733Z,583.00
2022-11-29T04:31:48.735Z,582.00
2022-11-29T04:32:18.681Z,583.00
2022-11-29T04:32:48.760Z,584.00
2022-11-29T04:33:18.851Z,585.00
2022-11-29T04:33:48.905Z,584.00
2022-11-29T04:34:18.964Z,584.00
2022-11-29T04:34:49.028Z,583.00
2022-11-29T04:35:19.100Z,582.00
2022-11-29T04:35:49.147Z,583.00
2022-11-29T04:36:19.192Z,582.00
2022-11-29T04:36:49.257Z,581.00
2022-11-29T04:37:19.312Z,581.00
2022-11-29T04:37:49.380Z,582.00
2022-11-29T04:38:19.430Z,580.00
2022-11-29T04:38:49.440Z,584.00
2022-11-29T04:39:19.552Z,585.00
2022-11-29T04:39:49.628Z,585.00
2022-11-29T04:40:19.628Z,586.00
2022-11-29T04:40:49.643Z,588.00
2022-11-29T04:41:19.669Z,588.00
2022-11-29T04:41:49.721Z,588.00
2022-11-29T04:42:19.744Z,586.00
2022-11-29T04:42:49.725Z,586.00
2022-11-29T04:43:19.808Z,586.00
2022-11-29T04:43:49.819Z,584.00
2022-11-29T04:44:19.834Z,585.00
2022-11-29T04:44:49.848Z,585.00
2022-11-29T04:45:19.852Z,586.00
2022-11-29T04:45:49.855Z,585.00
2022-11-29T04:46:19.948Z,584.00
2022-11-29T04:46:49.962Z,584.00
2022-11-29T04:47:19.953Z,583.00
2022-11-29T04:47:50.073Z,578.00
2022-11-29T04:48:20.137Z,589.00
2022-11-29T04:48:50.142Z,589.00
2022-11-29T04:49:20.207Z,585.00
2022-11-29T04:49:50.255Z,584.00
2022-11-29T04:50:20.290Z,585.00
2022-11-29T04:50:50.332Z,585.00
2022-11-29T04:51:20.375Z,584.00
2022-11-29T04:51:50.439Z,583.00
2022-11-29T04:52:20.498Z,582.00
2022-11-29T04:52:50.553Z,582.00
2022-11-29T04:53:20.621Z,583.00
2022-11-29T04:53:50.620Z,582.00
2022-11-29T04:54:20.651Z,582.00
2022-11-29T04:54:50.702Z,585.00
2022-11-29T04:55:26.384Z,585.00
2022-11-29T04:55:50.784Z,584.00
2022-11-29T04:56:20.813Z,581.00
2022-11-29T04:56:50.846Z,582.00
2022-11-29T04:57:20.929Z,580.00
2022-11-29T04:57:50.958Z,579.00
2022-11-29T04:58:20.996Z,577.00
2022-11-29T04:58:51.072Z,578.00
2022-11-29T04:59:21.110Z,580.00
2022-11-29T04:59:51.157Z,583.00
2022-11-29T05:00:21.198Z,585.00
2022-11-29T05:00:51.255Z,585.00
2022-11-29T05:01:21.429Z,586.00
2022-11-29T05:01:51.415Z,587.00
2022-11-29T05:02:21.423Z,586.00
2022-11-29T05:02:51.504Z,591.00
2022-11-29T05:03:22.236Z,591.00
2022-11-29T05:03:56.884Z,592.00
2022-11-29T05:04:21.571Z,591.00
2022-11-29T05:04:51.631Z,589.00
2022-11-29T05:05:21.677Z,589.00
2022-11-29T05:05:51.710Z,589.00
2022-11-29T05:06:21.742Z,588.00
2022-11-29T05:06:51.781Z,587.00
2022-11-29T05:07:21.858Z,587.00
2022-11-29T05:07:51.952Z,588.00
2022-11-29T05:08:22.021Z,590.00
2022-11-29T05:08:52.044Z,591.00
2022-11-29T05:09:22.083Z,593.00
2022-11-29T05:09:52.154Z,592.00
2022-11-29T05:10:22.174Z,592.00
2022-11-29T05:10:52.209Z,595.00
2022-11-29T05:11:26.740Z,596.00
2022-11-29T05:11:52.311Z,595.00
2022-11-29T05:12:22.382Z,593.00
2022-11-29T05:12:52.400Z,593.00
2022-11-29T05:13:22.474Z,591.00
2022-11-29T05:13:52.541Z,591.00
2022-11-29T05:14:22.520Z,597.00
2022-11-29T05:14:52.573Z,600.00
2022-11-29T05:15:22.619Z,597.00
2022-11-29T05:15:52.822Z,594.00
2022-11-29T05:16:22.786Z,593.00
2022-11-29T05:16:52.792Z,593.00
2022-11-29T05:17:22.846Z,596.00
2022-11-29T05:17:52.876Z,596.00
2022-11-29T05:18:22.913Z,600.00
2022-11-29T05:18:53.001Z,606.00
2022-11-29T05:19:23.049Z,610.00
2022-11-29T05:19:53.151Z,609.00
2022-11-29T05:20:23.208Z,610.00
2022-11-29T05:20:53.246Z,611.00
2022-11-29T05:21:23.363Z,613.00
2022-11-29T05:21:53.393Z,616.00
2022-11-29T05:22:23.424Z,618.00
2022-11-29T05:22:53.465Z,618.00
2022-11-29T05:23:23.590Z,619.00
2022-11-29T05:23:53.721Z,620.00
2022-11-29T05:24:23.609Z,620.00
2022-11-29T05:24:53.639Z,618.00
2022-11-29T05:25:23.714Z,619.00
2022-11-29T05:25:53.760Z,619.00
2022-11-29T05:26:23.792Z,619.00
2022-11-29T05:26:53.869Z,617.00
2022-11-29T05:27:23.929Z,619.00
2022-11-29T05:27:53.975Z,620.00
2022-11-29T05:28:24.037Z,619.00
2022-11-29T05:28:54.102Z,618.00
2022-11-29T05:29:24.139Z,618.00
2022-11-29T05:29:54.212Z,618.00
2022-11-29T05:30:24.247Z,616.00
2022-11-29T05:30:54.314Z,617.00
2022-11-29T05:31:24.399Z,617.00
2022-11-29T05:31:54.445Z,616.00
2022-11-29T05:32:24.533Z,617.00
2022-11-29T05:32:54.598Z,617.00
2022-11-29T05:33:24.790Z,617.00
2022-11-29T05:33:54.706Z,618.00
2022-11-29T05:34:24.790Z,616.00
2022-11-29T05:34:54.849Z,617.00
2022-11-29T05:35:24.864Z,623.00
2022-11-29T05:35:54.908Z,631.00
2022-11-29T05:36:24.969Z,631.00
2022-11-29T05:36:55.001Z,628.00
2022-11-29T05:37:25.100Z,628.00
2022-11-29T05:37:55.140Z,625.00
2022-11-29T05:38:25.344Z,622.00
2022-11-29T05:38:55.291Z,620.00
2022-11-29T05:39:25.345Z,620.00
2022-11-29T05:39:55.325Z,625.00
2022-11-29T05:40:25.334Z,627.00
2022-11-29T05:40:55.374Z,627.00
2022-11-29T05:41:25.369Z,629.00
2022-11-29T05:41:55.369Z,631.00
2022-11-29T05:42:25.416Z,633.00
2022-11-29T05:42:55.434Z,636.00
2022-11-29T05:43:25.490Z,636.00
2022-11-29T05:43:55.572Z,638.00
2022-11-29T05:44:25.597Z,637.00
2022-11-29T05:44:55.609Z,640.00
2022-11-29T05:45:25.581Z,641.00
2022-11-29T05:45:55.761Z,642.00
2022-11-29T05:46:25.916Z,644.00
2022-11-29T05:46:55.879Z,645.00
2022-11-29T05:47:31.259Z,644.00
2022-11-29T05:47:55.914Z,644.00
2022-11-29T05:48:26.019Z,640.00
2022-11-29T05:48:55.935Z,637.00
2022-11-29T05:49:25.995Z,637.00
2022-11-29T05:49:55.981Z,638.00
2022-11-29T05:50:26.045Z,638.00
2022-11-29T05:50:56.089Z,638.00
2022-11-29T05:51:26.146Z,636.00
2022-11-29T05:51:56.162Z,640.00
2022-11-29T05:52:26.363Z,639.00
2022-11-29T05:52:56.292Z,639.00
2022-11-29T05:53:26.348Z,640.00
2022-11-29T05:53:56.380Z,640.00
2022-11-29T05:54:26.479Z,640.00
2022-11-29T05:54:56.524Z,640.00
2022-11-29T05:55:26.567Z,639.00
2022-11-29T05:55:56.645Z,637.00
2022-11-29T05:56:26.684Z,638.00
2022-11-29T05:56:56.744Z,638.00
2022-11-29T05:57:26.789Z,638.00
2022-11-29T05:57:56.885Z,636.00
2022-11-29T05:58:30.362Z,637.00
2022-11-29T05:58:56.928Z,637.00
2022-11-29T05:59:26.976Z,636.00
2022-11-29T05:59:57.057Z,635.00
2022-11-29T06:00:27.092Z,635.00
2022-11-29T06:00:57.125Z,636.00
2022-11-29T06:01:27.161Z,637.00
2022-11-29T06:01:57.235Z,637.00
2022-11-29T06:02:27.487Z,638.00
2022-11-29T06:02:57.257Z,640.00
2022-11-29T06:03:27.206Z,640.00
2022-11-29T06:03:57.241Z,641.00
2022-11-29T06:04:27.278Z,641.00
2022-11-29T06:04:57.361Z,641.00
2022-11-29T06:05:27.376Z,641.00
2022-11-29T06:05:57.403Z,642.00
2022-11-29T06:06:27.436Z,642.00
2022-11-29T06:06:57.459Z,639.00
2022-11-29T06:07:27.636Z,639.00
2022-11-29T06:07:57.610Z,640.00
2022-11-29T06:08:27.600Z,640.00
2022-11-29T06:08:57.641Z,641.00
2022-11-29T06:09:27.736Z,640.00
2022-11-29T06:10:01.523Z,639.00
2022-11-29T06:10:27.805Z,639.00
2022-11-29T06:10:57.824Z,638.00
2022-11-29T06:11:27.861Z,638.00
2022-11-29T06:11:57.883Z,637.00
2022-11-29T06:12:27.971Z,638.00
2022-11-29T06:12:58.024Z,638.00
2022-11-29T06:13:28.039Z,638.00
2022-11-29T06:13:58.099Z,637.00
2022-11-29T06:14:28.126Z,629.00
2022-11-29T06:14:58.180Z,636.00